Time;durP1;ratioP1;P1;durP2;ratioP2;P2;SDS_P1;SDS_P2;PMS_P1;PMS_P2;Temp;Humidity;BMP_temperature;BMP_pressure;BME280_temperature;BME280_humidity;BME280_pressure;Samples;Min_cycle;Max_cycle;Signal;HPM_P1;HPM_P2
2023/03/22 00:02:29;;;;;;;0.30;0.20;;;;;;;12.84;73.45;94791.38;5115349;28;20416;-56
2023/03/22 00:04:57;;;;;;;0.30;0.20;;;;;;;12.68;73.55;94799.66;5115347;28;20420;-55
2023/03/22 00:07:26;;;;;;;0.50;0.40;;;;;;;13.10;72.33;94790.63;5116410;28;20424;-55
2023/03/22 00:09:55;;;;;;;0.63;0.63;;;;;;;13.08;71.57;94800.75;5116022;28;20473;-55
2023/03/22 00:12:23;;;;;;;2.73;1.50;;;;;;;12.93;72.89;94805.59;5115822;28;20478;-55
2023/03/22 00:14:52;;;;;;;0.40;0.33;;;;;;;12.76;70.47;94723.72;5115591;28;20466;-55
2023/03/22 00:17:21;;;;;;;1.17;0.60;;;;;;;13.38;68.86;94788.72;5115297;28;20416;-55
2023/03/22 00:19:53;;;;;;;0.30;0.20;;;;;;;13.51;68.29;94801.19;5115460;28;20527;-56
2023/03/22 00:22:21;;;;;;;0.50;0.40;;;;;;;13.16;68.89;94802.72;5115453;28;20469;-56
2023/03/22 00:24:51;;;;;;;0.40;0.40;;;;;;;12.91;70.09;94805.84;5115262;28;20432;-56
2023/03/22 00:27:19;;;;;;;0.50;0.37;;;;;;;12.90;69.91;94809.63;5115362;28;20428;-54
2023/03/22 00:29:47;;;;;;;0.50;0.30;;;;;;;13.19;69.08;94799.47;5115110;28;20438;-54
2023/03/22 00:32:16;;;;;;;0.30;0.20;;;;;;;13.32;69.14;94797.88;5115277;28;21046;-55
2023/03/22 00:34:44;;;;;;;0.50;0.30;;;;;;;13.07;70.63;94801.84;5115572;28;20803;-55
2023/03/22 00:37:15;;;;;;;1.53;0.57;;;;;;;13.04;71.56;94790.97;5115618;28;20428;-55
2023/03/22 00:39:43;;;;;;;0.93;0.73;;;;;;;13.21;70.38;94788.53;5115483;28;20997;-55
2023/03/22 00:42:12;;;;;;;0.50;0.47;;;;;;;13.27;69.00;94785.47;5115159;28;20448;-55
2023/03/22 00:44:40;;;;;;;0.30;0.20;;;;;;;13.16;67.97;94746.06;5115185;28;20472;-55
2023/03/22 00:47:08;;;;;;;0.30;0.20;;;;;;;13.48;69.94;94801.81;5114969;28;20430;-55
2023/03/22 00:49:37;;;;;;;2.10;1.27;;;;;;;13.51;71.35;94797.75;5114926;28;20428;-55
2023/03/22 00:52:05;;;;;;;0.30;0.30;;;;;;;13.68;72.23;94797.91;5114943;28;20459;-55
2023/03/22 00:54:35;;;;;;;0.50;0.50;;;;;;;13.49;74.56;94794.56;5114581;28;20434;-54
2023/03/22 00:57:04;;;;;;;0.40;0.30;;;;;;;13.44;76.75;94773.41;5114143;28;21051;-54
2023/03/22 00:59:37;;;;;;;0.40;0.40;;;;;;;13.52;78.94;94791.31;5113853;28;20451;-56
2023/03/22 01:02:05;;;;;;;0.50;0.30;;;;;;;13.31;84.88;94769.69;5114147;28;20910;-55
2023/03/22 01:04:34;;;;;;;0.40;0.30;;;;;;;13.43;89.03;94798.47;5114358;28;20485;-55
2023/03/22 01:07:06;;;;;;;0.50;0.27;;;;;;;13.39;89.57;94803.56;5113471;28;20464;-55
2023/03/22 01:09:36;;;;;;;0.30;0.20;;;;;;;13.41;91.71;94780.09;5113319;28;20811;-56
2023/03/22 01:12:04;;;;;;;0.30;0.30;;;;;;;13.34;94.63;94783.19;5113608;28;21013;-55
2023/03/22 01:14:33;;;;;;;0.30;0.20;;;;;;;13.31;98.49;94782.97;5113952;28;20432;-55
2023/03/22 01:17:01;;;;;;;0.70;0.50;;;;;;;13.30;97.72;94778.75;5114221;28;20427;-56
2023/03/22 01:19:29;;;;;;;0.40;0.40;;;;;;;13.30;95.86;94779.56;5114076;28;20822;-56
2023/03/22 01:21:58;;;;;;;0.40;0.30;;;;;;;13.31;94.04;94777.66;5113876;28;20539;-55
2023/03/22 01:24:26;;;;;;;0.30;0.20;;;;;;;13.28;95.68;94773.72;5113594;28;20475;-55
2023/03/22 01:26:56;;;;;;;0.30;0.20;;;;;;;13.18;94.75;94773.94;5113328;28;20816;-55
2023/03/22 01:29:25;;;;;;;0.40;0.30;;;;;;;12.95;97.51;94766.16;5113716;28;20432;-55
2023/03/22 01:31:53;;;;;;;7.03;0.57;;;;;;;12.30;100.00;94787.56;5113074;28;20460;-56
2023/03/22 01:34:22;;;;;;;0.40;0.30;;;;;;;11.80;100.00;94793.72;5113977;28;20518;-55
2023/03/22 01:36:50;;;;;;;1.27;0.70;;;;;;;11.96;100.00;94797.72;5113926;28;20431;-56
2023/03/22 01:39:18;;;;;;;2.40;0.60;;;;;;;12.35;100.00;94799.97;5113852;28;20420;-55
2023/03/22 01:41:47;;;;;;;0.50;0.47;;;;;;;12.20;100.00;94803.69;5113828;28;20916;-55
2023/03/22 01:44:18;;;;;;;0.50;0.30;;;;;;;11.88;100.00;94767.31;5113769;28;20471;-56
2023/03/22 01:46:48;;;;;;;0.40;0.30;;;;;;;12.00;100.00;94814.66;5113343;28;20435;-56
2023/03/22 01:49:22;;;;;;;0.40;0.30;;;;;;;11.92;100.00;94812.63;5113605;28;20429;-56
2023/03/22 01:51:54;;;;;;;2.43;0.70;;;;;;;11.82;100.00;94823.41;5113544;28;20539;-56
2023/03/22 01:54:26;;;;;;;0.40;0.40;;;;;;;11.57;100.00;94782.09;5113748;28;20467;-56
2023/03/22 01:56:55;;;;;;;1.17;1.03;;;;;;;11.36;100.00;94816.06;5113438;28;20427;-56
2023/03/22 01:59:25;;;;;;;0.53;0.40;;;;;;;11.23;100.00;94838.00;5113422;28;20424;-56
2023/03/22 02:01:54;;;;;;;0.60;0.60;;;;;;;11.41;100.00;94844.41;5113410;28;20420;-56
2023/03/22 02:04:33;;;;;;;0.40;0.30;;;;;;;11.61;100.00;94843.34;5113290;28;20464;-56
2023/03/22 02:07:08;;;;;;;0.40;0.30;;;;;;;11.74;100.00;94848.75;5113266;28;20492;-56
2023/03/22 02:09:41;;;;;;;0.30;0.23;;;;;;;11.83;100.00;94848.91;5113567;28;20507;-56
2023/03/22 02:12:21;;;;;;;0.40;0.40;;;;;;;11.93;100.00;94835.47;5113324;28;20463;-56
2023/03/22 02:15:04;;;;;;;0.50;0.40;;;;;;;11.98;100.00;94844.16;5113144;28;20420;-56
2023/03/22 02:17:45;;;;;;;0.40;0.30;;;;;;;11.98;100.00;94849.47;5113461;28;20445;-56
2023/03/22 02:20:54;;;;;;;0.43;0.30;;;;;;;11.34;100.00;94852.72;5112928;28;20480;-56
2023/03/22 02:24:05;;;;;;;0.60;0.60;;;;;;;11.21;100.00;94858.72;5112932;28;20503;-56
2023/03/22 02:27:05;;;;;;;0.50;0.50;;;;;;;11.57;100.00;94858.25;5113143;28;20495;-56
2023/03/22 02:29:43;;;;;;;2.77;1.43;;;;;;;11.40;100.00;94862.19;5112780;28;20423;-56
2023/03/22 02:32:47;;;;;;;0.30;0.30;;;;;;;11.35;100.00;94864.13;5112584;28;20502;-56
2023/03/22 02:35:33;;;;;;;0.30;0.30;;;;;;;11.99;100.00;94863.53;5112762;28;20415;-56
2023/03/22 02:38:36;;;;;;;1.53;1.50;;;;;;;12.05;100.00;94855.19;5112399;28;20428;-56
2023/03/22 02:41:14;;;;;;;0.40;0.30;;;;;;;12.00;100.00;94809.34;5112957;28;20451;-56
2023/03/22 02:43:52;;;;;;;0.40;0.30;;;;;;;12.30;100.00;94856.66;5112624;28;20948;-56
2023/03/22 02:46:24;;;;;;;0.50;0.50;;;;;;;12.09;100.00;94863.41;5112350;28;20424;-56
2023/03/22 02:49:01;;;;;;;0.30;0.27;;;;;;;12.23;100.00;94866.09;5112375;28;20501;-56
2023/03/22 02:51:34;;;;;;;0.40;0.30;;;;;;;12.21;100.00;94868.25;5112459;28;20422;-56
2023/03/22 02:54:08;;;;;;;0.30;0.20;;;;;;;12.34;100.00;94867.50;5112600;28;20554;-56
2023/03/22 02:56:44;;;;;;;0.30;0.20;;;;;;;12.51;100.00;94865.09;5112658;28;20432;-56
2023/03/22 02:59:14;;;;;;;0.30;0.20;;;;;;;12.55;100.00;94866.06;5112335;28;20412;-56
2023/03/22 03:01:46;;;;;;;0.40;0.30;;;;;;;12.02;100.00;94789.38;5112180;28;20516;-56
2023/03/22 03:04:19;;;;;;;0.40;0.30;;;;;;;12.49;100.00;94859.28;5112179;28;20419;-56
2023/03/22 03:06:50;;;;;;;0.33;0.23;;;;;;;12.48;100.00;94871.78;5112364;28;20928;-55
2023/03/22 03:09:21;;;;;;;0.30;0.20;;;;;;;12.49;100.00;94868.06;5112328;28;20428;-55
2023/03/22 03:11:52;;;;;;;0.30;0.20;;;;;;;12.32;100.00;94864.38;5111997;28;20882;-55
2023/03/22 03:14:22;;;;;;;0.60;0.60;;;;;;;11.58;100.00;94812.06;5111951;28;20478;-55
2023/03/22 03:17:03;;;;;;;0.40;0.40;;;;;;;12.22;100.00;94865.28;5112487;28;20885;-55
2023/03/22 03:19:38;;;;;;;0.50;0.50;;;;;;;12.01;100.00;94869.34;5111638;28;20882;-55
2023/03/22 03:22:21;;;;;;;0.30;0.30;;;;;;;11.73;100.00;94862.31;5111981;28;20470;-55
2023/03/22 03:25:02;;;;;;;0.50;0.50;;;;;;;11.54;100.00;94866.78;5111809;28;20420;-55
2023/03/22 03:27:38;;;;;;;0.40;0.30;;;;;;;11.53;100.00;94859.91;5111924;28;20502;-56
2023/03/22 03:30:12;;;;;;;0.47;0.30;;;;;;;11.48;100.00;94860.78;5111392;28;20506;-55
2023/03/22 03:32:44;;;;;;;0.63;0.63;;;;;;;11.13;100.00;94858.56;5111803;28;20458;-56
2023/03/22 03:35:22;;;;;;;0.40;0.30;;;;;;;10.31;100.00;94777.53;5111713;28;20514;-55
2023/03/22 03:37:56;;;;;;;0.50;0.50;;;;;;;11.21;100.00;94860.56;5112007;28;20427;-56
2023/03/22 03:40:29;;;;;;;0.47;0.47;;;;;;;11.29;100.00;94862.59;5111507;28;20422;-56
2023/03/22 03:43:02;;;;;;;0.40;0.30;;;;;;;11.36;100.00;94863.03;5111737;28;20520;-56
2023/03/22 03:45:31;;;;;;;0.73;0.47;;;;;;;11.44;100.00;94838.53;5111737;28;20499;-56
2023/03/22 03:48:03;;;;;;;0.30;0.30;;;;;;;11.65;100.00;94854.97;5111669;28;20430;-56
2023/03/22 03:50:31;;;;;;;0.40;0.40;;;;;;;11.57;100.00;94863.56;5111419;28;20522;-56
2023/03/22 03:53:00;;;;;;;0.40;0.40;;;;;;;11.21;100.00;94818.91;5111425;28;20463;-56
2023/03/22 03:55:29;;;;;;;0.40;0.30;;;;;;;11.15;100.00;94857.22;5111257;28;20507;-56
2023/03/22 03:57:59;;;;;;;0.30;0.20;;;;;;;11.19;100.00;94855.56;5111612;28;20885;-55
2023/03/22 04:00:27;;;;;;;0.40;0.37;;;;;;;10.80;100.00;94861.03;5111539;28;20515;-55
2023/03/22 04:02:56;;;;;;;0.43;0.40;;;;;;;10.15;100.00;94800.72;5111788;28;20444;-56
2023/03/22 04:05:24;;;;;;;0.73;0.43;;;;;;;10.58;100.00;94867.88;5110662;28;20452;-55
2023/03/22 04:07:52;;;;;;;0.40;0.30;;;;;;;10.13;100.00;94824.84;5111730;28;20517;-55
2023/03/22 04:10:20;;;;;;;0.50;0.40;;;;;;;10.27;100.00;94871.88;5111757;28;20450;-55
2023/03/22 04:12:49;;;;;;;0.40;0.30;;;;;;;10.46;100.00;94884.16;5111258;28;20904;-55
2023/03/22 04:15:19;;;;;;;1.03;0.70;;;;;;;10.58;100.00;94857.28;5111475;28;20423;-55
2023/03/22 04:17:47;;;;;;;0.50;0.37;;;;;;;10.45;100.00;94877.25;5111264;28;20442;-55
2023/03/22 04:20:15;;;;;;;0.50;0.40;;;;;;;10.58;100.00;94873.19;5111066;28;20441;-56
2023/03/22 04:22:45;;;;;;;0.40;0.40;;;;;;;10.84;100.00;94870.00;5111068;28;20471;-55
2023/03/22 04:25:16;;;;;;;1.07;1.07;;;;;;;11.11;100.00;94873.94;5111176;28;20436;-55
2023/03/22 04:27:49;;;;;;;0.40;0.40;;;;;;;10.96;100.00;94844.94;5111210;28;20514;-56
2023/03/22 04:30:20;;;;;;;0.63;0.57;;;;;;;11.41;100.00;94886.84;5111510;28;20419;-55
2023/03/22 04:32:49;;;;;;;0.50;0.50;;;;;;;11.44;100.00;94883.63;5111312;28;20439;-55
2023/03/22 04:35:17;;;;;;;1.10;1.10;;;;;;;11.54;100.00;94880.06;5110976;28;20503;-56
2023/03/22 04:37:47;;;;;;;2.70;1.00;;;;;;;11.59;100.00;94882.63;5111096;28;20825;-55
2023/03/22 04:40:16;;;;;;;1.97;1.87;;;;;;;11.61;100.00;94865.38;5111280;28;20495;-55
2023/03/22 04:42:44;;;;;;;0.80;0.80;;;;;;;11.79;100.00;94883.19;5113164;28;20423;-55
2023/03/22 04:45:14;;;;;;;0.40;0.30;;;;;;;11.78;100.00;94883.50;5114874;28;20436;-55
2023/03/22 04:47:44;;;;;;;5.73;0.67;;;;;;;11.80;100.00;94884.00;5114966;28;20431;-55
2023/03/22 04:50:12;;;;;;;1.93;1.83;;;;;;;11.85;100.00;94887.38;5114179;28;20428;-55
2023/03/22 04:52:40;;;;;;;0.47;0.47;;;;;;;11.83;100.00;94886.06;5114822;28;20517;-56
2023/03/22 04:55:09;;;;;;;0.77;0.40;;;;;;;11.89;100.00;94887.59;5115219;28;20970;-55
2023/03/22 04:57:37;;;;;;;0.90;0.40;;;;;;;11.92;100.00;94889.66;5115388;28;20804;-55
2023/03/22 05:00:09;;;;;;;0.80;0.80;;;;;;;11.96;100.00;94890.66;5114861;28;20438;-55
2023/03/22 05:02:39;;;;;;;0.60;0.60;;;;;;;12.04;100.00;94893.44;5114908;28;20464;-55
2023/03/22 05:05:12;;;;;;;0.50;0.50;;;;;;;11.67;100.00;94850.16;5115073;28;20420;-55
2023/03/22 05:07:41;;;;;;;0.83;0.83;;;;;;;12.10;100.00;94904.78;5114674;28;20428;-55
2023/03/22 05:10:10;;;;;;;0.37;0.33;;;;;;;12.19;100.00;94905.75;5114631;28;20434;-55
2023/03/22 05:12:38;;;;;;;0.40;0.40;;;;;;;12.34;100.00;94907.38;5114706;28;20594;-55
2023/03/22 05:15:08;;;;;;;0.40;0.37;;;;;;;12.37;100.00;94914.78;5114302;28;20592;-54
2023/03/22 05:17:36;;;;;;;0.97;0.97;;;;;;;12.41;100.00;94916.56;5114016;28;20522;-54
2023/03/22 05:20:08;;;;;;;0.70;0.70;;;;;;;12.45;100.00;94920.19;5114653;28;20435;-55
2023/03/22 05:22:39;;;;;;;1.43;1.33;;;;;;;12.35;100.00;94906.28;5114271;28;20428;-54
2023/03/22 05:25:10;;;;;;;1.33;1.17;;;;;;;12.46;100.00;94916.47;5114402;28;20493;-55
2023/03/22 05:27:39;;;;;;;1.20;0.90;;;;;;;12.56;100.00;94918.16;5114285;28;20468;-55
2023/03/22 05:30:08;;;;;;;1.13;1.10;;;;;;;12.64;100.00;94915.66;5114042;28;20428;-55
2023/03/22 05:32:41;;;;;;;0.47;0.43;;;;;;;12.50;100.00;94916.66;5114096;28;20424;-54
2023/03/22 05:35:10;;;;;;;0.60;0.60;;;;;;;12.57;100.00;94925.06;5114121;28;20897;-54
2023/03/22 05:37:40;;;;;;;0.50;0.50;;;;;;;12.62;100.00;94917.78;5113881;28;20431;-54
2023/03/22 05:40:09;;;;;;;0.60;0.60;;;;;;;12.65;100.00;94922.53;5113627;28;20871;-54
2023/03/22 05:42:38;;;;;;;6.70;5.10;;;;;;;12.61;100.00;94916.22;5113183;28;20424;-53
2023/03/22 05:45:07;;;;;;;1.37;1.27;;;;;;;12.21;100.00;94918.72;5113824;28;20424;-54
2023/03/22 05:47:38;;;;;;;0.93;0.93;;;;;;;12.28;100.00;94946.50;5113995;28;20939;-54
2023/03/22 05:50:08;;;;;;;1.80;1.70;;;;;;;12.14;100.00;94947.53;5113185;28;20927;-54
2023/03/22 05:52:36;;;;;;;1.33;1.30;;;;;;;12.08;100.00;94949.47;5113360;28;20439;-54
2023/03/22 05:55:07;;;;;;;0.90;0.70;;;;;;;12.22;100.00;94949.53;5112676;28;21013;-54
2023/03/22 05:57:35;;;;;;;1.10;0.87;;;;;;;12.48;100.00;94959.50;5113628;28;20428;-55
2023/03/22 06:00:09;;;;;;;0.70;0.67;;;;;;;12.68;100.00;94948.53;5113572;28;20432;-55
2023/03/22 06:02:38;;;;;;;0.50;0.50;;;;;;;12.68;100.00;94959.19;5113345;28;20437;-55
2023/03/22 06:05:08;;;;;;;1.53;1.37;;;;;;;12.33;100.00;94961.59;5113766;28;20774;-54
2023/03/22 06:07:36;;;;;;;1.00;1.00;;;;;;;12.10;100.00;94964.03;5112751;28;20428;-55
2023/03/22 06:10:09;;;;;;;1.00;1.00;;;;;;;11.92;100.00;94971.97;5113299;28;20507;-54
2023/03/22 06:12:37;;;;;;;0.60;0.40;;;;;;;12.02;100.00;94977.16;5113132;28;20431;-54
2023/03/22 06:15:07;;;;;;;0.53;0.53;;;;;;;12.00;100.00;94982.75;5113062;28;20516;-54
2023/03/22 06:17:36;;;;;;;1.43;1.33;;;;;;;11.37;100.00;94978.72;5112918;28;20528;-54
2023/03/22 06:20:09;;;;;;;1.03;1.03;;;;;;;10.97;100.00;94984.41;5113286;28;20986;-53
2023/03/22 06:22:38;;;;;;;1.33;1.23;;;;;;;11.07;100.00;94985.13;5112966;28;20811;-53
2023/03/22 06:25:10;;;;;;;0.40;0.40;;;;;;;11.21;100.00;94986.03;5113122;28;20523;-53
2023/03/22 06:27:38;;;;;;;3.07;0.70;;;;;;;11.34;100.00;94982.72;5112874;28;20935;-54
2023/03/22 06:30:08;;;;;;;0.67;0.67;;;;;;;11.31;100.00;94987.78;5112955;28;20884;-54
2023/03/22 06:32:36;;;;;;;1.33;1.23;;;;;;;11.83;100.00;94986.97;5112673;28;20463;-54
2023/03/22 06:35:05;;;;;;;1.27;0.53;;;;;;;12.00;100.00;94981.97;5112281;28;20529;-54
2023/03/22 06:37:34;;;;;;;0.90;0.90;;;;;;;12.37;100.00;94987.28;5111969;28;20501;-53
2023/03/22 06:40:02;;;;;;;1.53;0.30;;;;;;;12.65;100.00;94975.69;5112217;28;20428;-53
2023/03/22 06:42:32;;;;;;;1.00;0.90;;;;;;;11.76;100.00;94889.09;5112512;28;20434;-53
2023/03/22 06:45:01;;;;;;;0.40;0.30;;;;;;;12.75;100.00;94983.50;5112765;28;20440;-53
2023/03/22 06:47:29;;;;;;;0.83;0.60;;;;;;;12.82;100.00;94990.34;5112312;28;20511;-54
2023/03/22 06:49:57;;;;;;;1.40;0.60;;;;;;;12.97;100.00;94984.78;5112658;28;20515;-54
2023/03/22 06:52:26;;;;;;;1.93;1.80;;;;;;;13.06;100.00;94965.22;5112057;28;20459;-54
2023/03/22 06:54:55;;;;;;;0.93;0.93;;;;;;;13.70;100.00;94985.59;5112464;28;20540;-55
2023/03/22 06:57:23;;;;;;;0.80;0.50;;;;;;;13.38;100.00;94988.34;5111653;28;20431;-54
2023/03/22 06:59:53;;;;;;;2.23;1.87;;;;;;;13.14;100.00;94953.91;5111917;28;20960;-55
2023/03/22 07:02:22;;;;;;;2.33;0.53;;;;;;;13.11;100.00;94991.72;5112326;28;20528;-54
2023/03/22 07:04:50;;;;;;;0.60;0.57;;;;;;;12.83;100.00;94997.22;5111946;28;20449;-55
2023/03/22 07:07:18;;;;;;;2.00;1.43;;;;;;;12.83;100.00;94990.03;5111693;28;20409;-55
2023/03/22 07:09:46;;;;;;;0.90;0.90;;;;;;;13.07;100.00;94982.78;5111724;28;20431;-55
2023/03/22 07:12:15;;;;;;;1.07;0.73;;;;;;;13.00;100.00;94986.84;5111729;28;20444;-55
2023/03/22 07:14:44;;;;;;;1.00;1.00;;;;;;;13.07;100.00;94981.97;5111769;28;20558;-56
2023/03/22 07:17:14;;;;;;;1.53;1.07;;;;;;;13.47;100.00;94967.94;5111714;28;20518;-56
2023/03/22 07:19:43;;;;;;;1.57;0.93;;;;;;;13.95;100.00;94977.09;5111870;28;20415;-55
2023/03/22 07:22:12;;;;;;;1.10;0.87;;;;;;;14.38;100.00;94982.06;5111117;28;20463;-55
2023/03/22 07:24:40;;;;;;;0.40;0.30;;;;;;;14.70;100.00;94979.19;5111812;28;20482;-56
2023/03/22 07:27:23;;;;;;;0.50;0.47;;;;;;;14.36;100.00;94985.03;5111463;28;20435;-56
2023/03/22 07:29:51;;;;;;;1.07;1.00;;;;;;;14.40;100.00;94977.22;5111648;28;20420;-54
2023/03/22 07:32:21;;;;;;;0.77;0.60;;;;;;;14.96;96.40;94980.16;5111554;28;20467;-54
2023/03/22 07:34:49;;;;;;;0.53;0.53;;;;;;;15.70;95.61;94978.53;5110601;28;21131;-54
2023/03/22 07:37:18;;;;;;;10.60;1.10;;;;;;;16.05;87.91;94983.97;5111384;28;20438;-55
2023/03/22 07:39:46;;;;;;;1.70;0.53;;;;;;;16.16;84.05;94986.06;5111538;28;20513;-55
2023/03/22 07:42:14;;;;;;;1.00;1.00;;;;;;;16.35;84.42;94983.88;5111499;28;20862;-55
2023/03/22 07:44:43;;;;;;;0.60;0.53;;;;;;;15.93;86.92;94987.25;5111885;28;20438;-56
2023/03/22 07:47:11;;;;;;;0.80;0.50;;;;;;;14.98;90.47;94985.97;5111697;28;20511;-56
2023/03/22 07:49:41;;;;;;;0.90;0.83;;;;;;;15.08;92.82;94988.41;5111394;28;20935;-56
2023/03/22 07:52:09;;;;;;;4.50;0.70;;;;;;;15.15;92.56;94990.66;5111635;28;20424;-55
2023/03/22 07:54:37;;;;;;;0.43;0.43;;;;;;;15.25;90.47;94987.72;5110934;28;20446;-55
2023/03/22 07:57:06;;;;;;;0.73;0.33;;;;;;;15.00;90.31;94981.13;5111556;28;20433;-55
2023/03/22 07:59:35;;;;;;;0.60;0.60;;;;;;;15.19;92.34;94978.25;5110984;28;20449;-55
2023/03/22 08:02:07;;;;;;;1.50;1.50;;;;;;;14.84;93.27;94982.59;5111689;28;20442;-56
2023/03/22 08:04:36;;;;;;;0.50;0.40;;;;;;;14.77;96.10;94987.56;5111496;28;21069;-56
2023/03/22 08:07:08;;;;;;;1.37;1.37;;;;;;;15.27;91.98;94986.31;5111371;28;20944;-56
2023/03/22 08:09:37;;;;;;;0.40;0.30;;;;;;;15.57;89.34;94986.63;5111502;28;20450;-56
2023/03/22 08:12:06;;;;;;;0.63;0.50;;;;;;;15.40;89.08;94981.19;5111316;28;20489;-56
2023/03/22 08:14:35;;;;;;;3.03;0.70;;;;;;;15.73;92.57;94977.13;5111324;28;20506;-56
2023/03/22 08:17:04;;;;;;;0.93;0.93;;;;;;;15.68;88.24;94985.28;5112615;28;20934;-56
2023/03/22 08:19:33;;;;;;;0.30;0.20;;;;;;;15.57;90.22;94947.38;5115434;28;20810;-56
2023/03/22 08:22:02;;;;;;;0.30;0.20;;;;;;;15.80;88.60;94991.63;5115370;28;20927;-56
2023/03/22 08:24:32;;;;;;;0.83;0.83;;;;;;;15.43;84.85;94991.28;5114984;28;20481;-56
2023/03/22 08:27:01;;;;;;;0.70;0.70;;;;;;;15.34;78.46;94991.22;5114415;28;20490;-56
2023/03/22 08:29:29;;;;;;;0.53;0.50;;;;;;;15.34;78.48;94995.75;5115090;28;20423;-56
2023/03/22 08:32:01;;;;;;;0.43;0.43;;;;;;;15.49;75.49;94961.47;5115055;28;20432;-56
2023/03/22 08:34:30;;;;;;;0.40;0.30;;;;;;;15.12;75.73;94983.25;5115017;28;20434;-56
2023/03/22 08:36:58;;;;;;;1.03;1.03;;;;;;;15.46;75.00;94988.78;5115250;28;20467;-56
2023/03/22 08:39:26;;;;;;;3.23;0.50;;;;;;;15.35;73.37;94995.47;5115298;28;20454;-56
2023/03/22 08:41:56;;;;;;;0.60;0.50;;;;;;;15.48;72.99;94994.63;5114985;28;20454;-56
2023/03/22 08:44:25;;;;;;;0.90;0.50;;;;;;;15.32;71.15;94973.94;5115235;28;20486;-56
2023/03/22 08:46:54;;;;;;;0.40;0.40;;;;;;;15.62;72.76;94978.50;5114903;28;20478;-56
2023/03/22 08:49:23;;;;;;;0.70;0.50;;;;;;;15.43;71.49;94984.03;5114766;28;20444;-56
2023/03/22 08:51:51;;;;;;;0.40;0.30;;;;;;;15.72;70.45;94986.22;5114971;28;20431;-56
2023/03/22 08:54:20;;;;;;;0.70;0.50;;;;;;;15.78;69.13;94980.44;5114650;28;20931;-56
2023/03/22 08:56:49;;;;;;;1.13;1.03;;;;;;;15.99;68.74;94982.56;5114505;28;20485;-56
2023/03/22 08:59:18;;;;;;;2.37;0.53;;;;;;;15.80;67.62;94982.81;5114914;28;20420;-56
2023/03/22 09:01:47;;;;;;;0.63;0.63;;;;;;;15.46;69.03;94988.00;5114474;28;20493;-56
2023/03/22 09:04:15;;;;;;;1.03;0.73;;;;;;;15.66;68.59;94976.78;5114767;28;20452;-56
2023/03/22 09:06:45;;;;;;;0.70;0.63;;;;;;;15.70;69.48;94981.19;5114687;28;20505;-56
2023/03/22 09:09:14;;;;;;;1.60;0.30;;;;;;;15.44;68.39;94985.59;5114287;28;20428;-56
2023/03/22 09:11:43;;;;;;;3.07;0.50;;;;;;;14.90;68.01;94944.00;5113992;28;20554;-56
2023/03/22 09:14:12;;;;;;;1.10;1.10;;;;;;;14.96;69.65;94921.44;5113816;28;20486;-56
2023/03/22 09:16:41;;;;;;;0.60;0.60;;;;;;;15.70;68.59;94981.19;5114361;28;20489;-56
2023/03/22 09:19:10;;;;;;;0.60;0.60;;;;;;;15.66;67.72;94950.84;5114327;28;20423;-56
2023/03/22 09:21:38;;;;;;;0.50;0.37;;;;;;;15.93;66.12;94976.56;5114423;28;20428;-56
2023/03/22 09:24:07;;;;;;;0.67;0.40;;;;;;;15.51;67.92;94975.28;5113605;28;21022;-56
2023/03/22 09:26:36;;;;;;;0.67;0.67;;;;;;;16.02;66.83;94977.34;5114078;28;20440;-57
2023/03/22 09:29:04;;;;;;;0.40;0.33;;;;;;;16.57;65.17;94974.16;5112932;28;20432;-58
2023/03/22 09:31:33;;;;;;;0.60;0.40;;;;;;;16.14;65.57;94974.09;5114057;28;20454;-58
2023/03/22 09:34:03;;;;;;;0.40;0.30;;;;;;;17.35;62.06;94960.34;5114432;28;20423;-57
2023/03/22 09:36:31;;;;;;;0.43;0.37;;;;;;;17.77;59.88;94958.63;5113652;28;20494;-57
2023/03/22 09:39:01;;;;;;;0.57;0.50;;;;;;;18.81;60.45;94946.91;5113990;28;20946;-58
2023/03/22 09:41:36;;;;;;;0.77;0.77;;;;;;;18.68;57.71;94950.66;5113868;28;20464;-59
2023/03/22 09:44:08;;;;;;;0.50;0.40;;;;;;;19.01;54.41;94926.50;5113781;28;20432;-60
2023/03/22 09:46:40;;;;;;;0.67;0.67;;;;;;;19.15;56.27;94943.09;5113724;28;20900;-60
2023/03/22 09:49:17;;;;;;;0.50;0.37;;;;;;;18.64;53.19;94944.38;5113840;28;20446;-60
2023/03/22 09:51:47;;;;;;;0.50;0.40;;;;;;;18.12;58.25;94911.75;5113808;28;20863;-60
2023/03/22 09:54:20;;;;;;;0.50;0.50;;;;;;;19.00;54.13;94952.56;5113365;28;20928;-60
2023/03/22 09:56:54;;;;;;;0.73;0.40;;;;;;;19.33;53.86;94943.69;5113292;28;20493;-60
2023/03/22 09:59:30;;;;;;;0.50;0.30;;;;;;;19.69;51.76;94943.00;5113509;28;20428;-60
2023/03/22 10:02:01;;;;;;;0.40;0.40;;;;;;;18.36;53.62;94954.03;5113155;28;20424;-60
2023/03/22 10:04:51;;;;;;;0.60;0.57;;;;;;;19.08;54.12;94953.59;5113141;28;20514;-59
2023/03/22 10:07:27;;;;;;;0.70;0.30;;;;;;;18.29;54.02;94951.84;5113082;28;20448;-59
2023/03/22 10:10:07;;;;;;;1.70;0.50;;;;;;;18.35;53.76;94901.47;5113629;28;20440;-60
2023/03/22 10:12:43;;;;;;;0.43;0.40;;;;;;;19.67;51.86;94948.72;5113480;28;20947;-60
2023/03/22 10:15:14;;;;;;;0.40;0.30;;;;;;;21.12;50.09;94948.50;5113591;28;20430;-59
2023/03/22 10:17:45;;;;;;;2.30;0.30;;;;;;;21.49;47.29;94941.78;5112955;28;20471;-59
2023/03/22 10:20:27;;;;;;;0.40;0.30;;;;;;;22.61;45.13;94937.47;5113392;28;20939;-58
2023/03/22 10:22:58;;;;;;;0.40;0.30;;;;;;;22.96;44.53;94923.16;5112701;28;20479;-58
2023/03/22 10:25:33;;;;;;;0.50;0.40;;;;;;;21.98;44.39;94927.97;5113532;28;20529;-59
2023/03/22 10:28:02;;;;;;;0.40;0.30;;;;;;;21.89;47.20;94944.31;5113048;28;20447;-59
2023/03/22 10:30:37;;;;;;;0.40;0.30;;;;;;;21.92;46.24;94945.53;5112967;28;20479;-59
2023/03/22 10:33:14;;;;;;;0.30;0.20;;;;;;;22.56;45.17;94940.47;5113289;28;20531;-57
2023/03/22 10:35:44;;;;;;;0.50;0.40;;;;;;;23.08;43.27;94922.97;5113081;28;20424;-57
2023/03/22 10:38:20;;;;;;;0.40;0.30;;;;;;;23.88;39.88;94920.94;5112785;28;20513;-56
2023/03/22 10:40:50;;;;;;;0.40;0.40;;;;;;;23.78;40.75;94908.03;5112809;28;20482;-57
2023/03/22 10:43:22;;;;;;;0.50;0.47;;;;;;;22.28;41.94;94872.34;5112985;28;20848;-58
2023/03/22 10:45:53;;;;;;;0.40;0.30;;;;;;;21.55;44.16;94930.72;5112817;28;20515;-58
2023/03/22 10:48:27;;;;;;;0.60;0.50;;;;;;;21.31;44.21;94915.50;5112344;28;21004;-59
2023/03/22 10:50:59;;;;;;;0.50;0.50;;;;;;;19.68;44.26;94869.66;5112817;28;20420;-58
2023/03/22 10:53:36;;;;;;;0.40;0.40;;;;;;;19.70;46.76;94917.69;5112253;28;20881;-59
2023/03/22 10:56:09;;;;;;;0.60;0.60;;;;;;;20.25;46.41;94926.75;5112091;28;20556;-57
2023/03/22 10:58:38;;;;;;;0.40;0.30;;;;;;;20.40;44.63;94916.41;5111347;28;20428;-56
2023/03/22 11:01:10;;;;;;;0.40;0.30;;;;;;;19.75;45.57;94912.88;5111509;28;20432;-57
2023/03/22 11:03:41;;;;;;;0.40;0.30;;;;;;;20.10;46.58;94859.38;5111914;28;20431;-57
2023/03/22 11:06:13;;;;;;;0.40;0.23;;;;;;;19.83;46.92;94914.69;5112245;28;20450;-57
2023/03/22 11:08:46;;;;;;;0.50;0.30;;;;;;;19.74;48.47;94900.53;5111592;28;20428;-56
2023/03/22 11:11:22;;;;;;;0.50;0.30;;;;;;;19.44;48.09;94913.41;5112344;28;20427;-55
2023/03/22 11:13:59;;;;;;;0.40;0.30;;;;;;;19.14;47.92;94909.31;5111951;28;20463;-55
2023/03/22 11:16:29;;;;;;;0.40;0.30;;;;;;;19.52;47.61;94903.69;5111893;28;20438;-57
2023/03/22 11:19:00;;;;;;;0.93;0.63;;;;;;;19.62;47.26;94908.63;5111237;28;20444;-56
2023/03/22 11:21:33;;;;;;;0.40;0.30;;;;;;;18.45;48.44;94809.84;5110909;28;20798;-56
2023/03/22 11:24:05;;;;;;;0.50;0.30;;;;;;;18.95;48.12;94906.34;5110800;28;20524;-56
2023/03/22 11:26:36;;;;;;;0.40;0.20;;;;;;;19.90;49.72;94896.06;5111718;28;20951;-56
2023/03/22 11:29:14;;;;;;;0.63;0.40;;;;;;;20.23;46.38;94896.72;5111646;28;20431;-56
2023/03/22 11:31:53;;;;;;;0.60;0.60;;;;;;;20.39;45.24;94898.69;5111428;28;20427;-56
2023/03/22 11:34:26;;;;;;;0.43;0.40;;;;;;;21.05;47.62;94893.63;5111732;28;20420;-56
2023/03/22 11:36:59;;;;;;;0.60;0.50;;;;;;;20.46;45.07;94896.22;5111662;28;20975;-56
2023/03/22 11:39:29;;;;;;;0.50;0.30;;;;;;;20.55;44.39;94888.75;5111692;28;20481;-57
2023/03/22 11:42:00;;;;;;;0.40;0.30;;;;;;;20.45;44.46;94892.72;5111486;28;20428;-56
2023/03/22 11:44:34;;;;;;;0.50;0.50;;;;;;;20.59;48.96;94884.28;5110899;28;20416;-56
2023/03/22 11:47:04;;;;;;;0.50;0.50;;;;;;;20.55;44.77;94884.16;5111749;28;20800;-56
2023/03/22 11:49:39;;;;;;;0.40;0.30;;;;;;;20.00;45.10;94890.22;5111695;28;20455;-57